Time;durP1;ratioP1;P1;durP2;ratioP2;P2;SDS_P1;SDS_P2;PMS_P1;PMS_P2;Temp;Humidity;BMP_temperature;BMP_pressure;BME280_temperature;BME280_humidity;BME280_pressure;Samples;Min_cycle;Max_cycle;Signal;HPM_P1;HPM_P2
2022/02/14 00:00:59;;;;;;;11.20;2.67;;;;;;;;;;5021388;28;20115;-59
2022/02/14 00:03:26;;;;;;;9.65;1.95;;;;;;;;;;5044254;28;20052;-59
2022/02/14 00:05:52;;;;;;;5.80;2.30;;;;;;;;;;5040987;28;20053;-59
2022/02/14 00:08:19;;;;;;;11.20;2.60;;;;;;;;;;5047997;28;20053;-59
2022/02/14 00:10:45;;;;;;;7.43;1.88;;;;;;;;;;5041059;28;20126;-59
2022/02/14 00:13:12;;;;;;;5.28;1.85;;;;;;;;;;5047594;28;20099;-58
2022/02/14 00:15:42;;;;;;;17.05;2.50;;;;;;;;;;5047113;28;20448;-59
2022/02/14 00:18:09;;;;;;;8.85;2.50;;;;;;;;;;5041203;28;20060;-58
2022/02/14 00:20:38;;;;;;;7.07;2.20;;;;;;;;;;5047713;28;20102;-59
2022/02/14 00:23:04;;;;;;;12.82;2.67;;;;;;;;;;5041088;28;20052;-59
2022/02/14 00:25:31;;;;;;;8.00;2.10;;;;;;;;;;5044447;28;20118;-60
2022/02/14 00:27:58;;;;;;;7.28;1.90;;;;;;;;;;5041237;28;20503;-59
2022/02/14 00:30:25;;;;;;;6.30;2.13;;;;;;;;;;5058914;28;20048;-59
2022/02/14 00:32:53;;;;;;;13.43;2.42;;;;;;;;;;5060361;28;20139;-59
2022/02/14 00:35:19;;;;;;;5.03;2.17;;;;;;;;;;5044545;28;20053;-60
2022/02/14 00:37:46;;;;;;;10.93;2.60;;;;;;;;;;5046481;28;20564;-60
2022/02/14 00:40:12;;;;;;;7.80;2.60;;;;;;;;;;5042195;28;20057;-60
2022/02/14 00:42:39;;;;;;;14.00;2.42;;;;;;;;;;5047247;28;20147;-60
2022/02/14 00:45:06;;;;;;;10.18;2.45;;;;;;;;;;5042475;28;20490;-61
2022/02/14 00:47:32;;;;;;;10.30;3.17;;;;;;;;;;5047027;28;20413;-59
2022/02/14 00:50:03;;;;;;;9.32;2.80;;;;;;;;;;5047802;28;20044;-60
2022/02/14 00:52:29;;;;;;;9.75;2.95;;;;;;;;;;5067085;28;20494;-59
2022/02/14 00:54:57;;;;;;;13.90;3.05;;;;;;;;;;5060792;28;20048;-59
2022/02/14 00:57:24;;;;;;;9.67;2.70;;;;;;;;;;5062501;28;20452;-59
2022/02/14 00:59:52;;;;;;;9.93;2.85;;;;;;;;;;5058771;28;20572;-60
2022/02/14 01:02:18;;;;;;;12.95;2.30;;;;;;;;;;5066831;28;20048;-60
2022/02/14 01:04:48;;;;;;;7.15;2.08;;;;;;;;;;5058939;28;20056;-58
2022/02/14 01:07:16;;;;;;;5.00;2.08;;;;;;;;;;5066364;28;20382;-59
2022/02/14 01:09:43;;;;;;;5.53;1.87;;;;;;;;;;5065803;28;20090;-60
2022/02/14 01:12:10;;;;;;;3.65;1.67;;;;;;;;;;5060092;28;20056;-59
2022/02/14 01:14:37;;;;;;;4.55;1.90;;;;;;;;;;5052249;28;20103;-62
2022/02/14 01:17:03;;;;;;;5.85;2.10;;;;;;;;;;5073640;28;20094;-61
2022/02/14 01:19:30;;;;;;;5.50;1.73;;;;;;;;;;5068498;28;20044;-62
2022/02/14 01:21:56;;;;;;;8.48;1.90;;;;;;;;;;5061900;28;20044;-60
2022/02/14 01:24:24;;;;;;;8.77;2.15;;;;;;;;;;5066656;28;20067;-60
2022/02/14 01:26:51;;;;;;;9.07;1.85;;;;;;;;;;5049282;28;20102;-62
2022/02/14 01:29:18;;;;;;;3.75;1.65;;;;;;;;;;5046501;28;20126;-59
2022/02/14 01:31:44;;;;;;;7.32;1.60;;;;;;;;;;5048514;28;20098;-60
2022/02/14 01:34:11;;;;;;;7.97;1.77;;;;;;;;;;5066019;28;20104;-59
2022/02/14 01:36:37;;;;;;;9.38;1.60;;;;;;;;;;5058786;28;20122;-59
2022/02/14 01:39:10;;;;;;;4.95;1.50;;;;;;;;;;5066222;28;20140;-59
2022/02/14 01:41:37;;;;;;;6.30;1.77;;;;;;;;;;5054739;28;20503;-60
2022/02/14 01:44:04;;;;;;;11.47;1.60;;;;;;;;;;5046488;28;20076;-59
2022/02/14 01:46:31;;;;;;;4.97;1.52;;;;;;;;;;5040320;28;20127;-60
2022/02/14 01:48:58;;;;;;;9.98;1.45;;;;;;;;;;5051182;28;20510;-59
2022/02/14 01:51:24;;;;;;;5.18;1.65;;;;;;;;;;5065801;28;20135;-60
2022/02/14 01:53:51;;;;;;;4.90;1.50;;;;;;;;;;5059804;28;20072;-59
2022/02/14 01:56:17;;;;;;;4.80;1.90;;;;;;;;;;5065311;28;20135;-61
2022/02/14 01:58:48;;;;;;;4.47;1.67;;;;;;;;;;5060442;28;20114;-59
2022/02/14 02:01:14;;;;;;;3.45;1.30;;;;;;;;;;5065961;28;20143;-59
2022/02/14 02:03:41;;;;;;;8.18;1.75;;;;;;;;;;5060327;28;20052;-60
2022/02/14 02:06:07;;;;;;;6.45;1.55;;;;;;;;;;5065372;28;20057;-60
2022/02/14 02:08:34;;;;;;;6.03;1.60;;;;;;;;;;5060039;28;20143;-59
2022/02/14 02:13:49;;;;;;;7.07;1.88;;;;;;;;;;5061813;28;20048;-59
2022/02/14 02:16:16;;;;;;;6.28;1.70;;;;;;;;;;5070052;28;20056;-61
2022/02/14 02:18:42;;;;;;;9.90;1.33;;;;;;;;;;5065020;28;20057;-58
2022/02/14 02:21:09;;;;;;;5.10;1.55;;;;;;;;;;5069519;28;20125;-60
2022/02/14 02:23:39;;;;;;;6.25;1.45;;;;;;;;;;5063036;28;20052;-60
2022/02/14 02:26:07;;;;;;;6.72;1.80;;;;;;;;;;5069535;28;20095;-60
2022/02/14 02:28:33;;;;;;;6.40;1.73;;;;;;;;;;5046525;28;20044;-58
2022/02/14 02:31:01;;;;;;;5.30;1.70;;;;;;;;;;5069926;28;20303;-58
2022/02/14 02:33:29;;;;;;;4.38;1.45;;;;;;;;;;5064049;28;20115;-60
2022/02/14 02:35:56;;;;;;;3.92;1.50;;;;;;;;;;5069356;28;20102;-57
2022/02/14 02:38:23;;;;;;;4.60;1.80;;;;;;;;;;5065409;28;20078;-58
2022/02/14 02:40:50;;;;;;;7.03;1.70;;;;;;;;;;5067686;28;20046;-59
2022/02/14 02:43:18;;;;;;;9.57;1.52;;;;;;;;;;5069324;28;20045;-61
2022/02/14 02:45:44;;;;;;;3.80;1.40;;;;;;;;;;5061906;28;20570;-61
2022/02/14 02:48:11;;;;;;;3.45;1.45;;;;;;;;;;5070602;28;20100;-60
2022/02/14 02:51:01;;;;;;;7.68;1.50;;;;;;;;;;5065664;28;20367;-61
2022/02/14 02:53:27;;;;;;;3.60;1.33;;;;;;;;;;5070063;28;20140;-58
2022/02/14 02:55:53;;;;;;;3.33;1.20;;;;;;;;;;5063126;28;20056;-59
2022/02/14 02:58:21;;;;;;;6.88;1.67;;;;;;;;;;5068436;28;20577;-61
2022/02/14 03:00:49;;;;;;;5.47;1.77;;;;;;;;;;5062633;28;20098;-59
2022/02/14 03:03:16;;;;;;;3.67;1.40;;;;;;;;;;5088606;28;20121;-61
2022/02/14 03:05:42;;;;;;;5.07;1.55;;;;;;;;;;5049636;28;20318;-60
2022/02/14 03:08:09;;;;;;;10.45;1.95;;;;;;;;;;5048667;28;20045;-60
2022/02/14 03:10:36;;;;;;;6.47;1.45;;;;;;;;;;5042489;28;20055;-59
2022/02/14 03:13:03;;;;;;;9.30;1.17;;;;;;;;;;5049175;28;20041;-60
2022/02/14 03:15:31;;;;;;;4.80;1.30;;;;;;;;;;5042222;28;20076;-60
2022/02/14 03:17:58;;;;;;;3.63;1.27;;;;;;;;;;5049247;28;20056;-60
2022/02/14 03:20:26;;;;;;;3.15;1.40;;;;;;;;;;5043221;28;20315;-61
2022/02/14 03:22:52;;;;;;;6.88;1.48;;;;;;;;;;5047990;28;20056;-59
2022/02/14 03:25:19;;;;;;;4.15;1.60;;;;;;;;;;5042892;28;20072;-59
2022/02/14 03:27:45;;;;;;;7.75;1.65;;;;;;;;;;5049006;28;20102;-60
2022/02/14 03:30:13;;;;;;;7.72;2.10;;;;;;;;;;5048302;28;20532;-61
2022/02/14 03:32:41;;;;;;;3.13;1.45;;;;;;;;;;5042452;28;20155;-59
2022/02/14 03:35:08;;;;;;;6.38;1.73;;;;;;;;;;5049026;28;20063;-59
2022/02/14 03:37:35;;;;;;;8.38;1.88;;;;;;;;;;5058208;28;20464;-60
2022/02/14 03:40:06;;;;;;;9.48;2.00;;;;;;;;;;5068564;28;20151;-59
2022/02/14 03:42:32;;;;;;;3.67;1.42;;;;;;;;;;5048059;28;20689;-62
2022/02/14 03:44:59;;;;;;;7.65;1.70;;;;;;;;;;5048633;28;20118;-59
2022/02/14 03:47:25;;;;;;;5.30;1.90;;;;;;;;;;5042088;28;20052;-58
2022/02/14 03:49:55;;;;;;;5.43;1.55;;;;;;;;;;5048711;28;20099;-59
2022/02/14 03:52:22;;;;;;;6.15;1.30;;;;;;;;;;5051373;28;20048;-59
2022/02/14 03:54:48;;;;;;;5.82;1.92;;;;;;;;;;5067805;28;20456;-60
2022/02/14 03:57:15;;;;;;;4.90;1.40;;;;;;;;;;5061029;28;20179;-59
2022/02/14 03:59:42;;;;;;;4.05;1.48;;;;;;;;;;5068441;28;20052;-60
2022/02/14 04:02:08;;;;;;;5.85;1.60;;;;;;;;;;5055592;28;20049;-59
2022/02/14 04:04:34;;;;;;;4.15;1.63;;;;;;;;;;5048164;28;20098;-60
2022/02/14 04:07:03;;;;;;;5.25;1.42;;;;;;;;;;5044010;28;20053;-60
2022/02/14 04:09:29;;;;;;;6.95;1.65;;;;;;;;;;5067605;28;20501;-61
2022/02/14 04:11:56;;;;;;;6.75;1.85;;;;;;;;;;5066746;28;20040;-60
2022/02/14 04:14:23;;;;;;;7.35;1.60;;;;;;;;;;5062459;28;20226;-59
2022/02/14 04:16:49;;;;;;;4.32;1.50;;;;;;;;;;5047902;28;20486;-61
2022/02/14 04:19:18;;;;;;;5.70;1.42;;;;;;;;;;5057993;28;20056;-61
2022/02/14 04:21:44;;;;;;;5.82;1.23;;;;;;;;;;5070009;28;20098;-62
2022/02/14 04:24:12;;;;;;;6.85;1.48;;;;;;;;;;5035216;28;20049;-62
2022/02/14 04:26:39;;;;;;;6.57;1.80;;;;;;;;;;5027557;28;20053;-61
2022/02/14 04:29:06;;;;;;;6.90;1.70;;;;;;;;;;5035826;28;20052;-61
2022/02/14 04:31:32;;;;;;;6.63;1.40;;;;;;;;;;5067635;28;20059;-58
2022/02/14 04:33:59;;;;;;;5.78;1.50;;;;;;;;;;5059738;28;20142;-59
2022/02/14 04:36:25;;;;;;;4.40;1.67;;;;;;;;;;5066826;28;20506;-61
2022/02/14 04:38:52;;;;;;;4.03;0.85;;;;;;;;;;5054699;28;20118;-60
2022/02/14 04:41:19;;;;;;;6.78;1.67;;;;;;;;;;5047198;28;20045;-59
2022/02/14 04:43:46;;;;;;;4.17;1.60;;;;;;;;;;5045688;28;20044;-58
2022/02/14 04:46:13;;;;;;;3.53;1.40;;;;;;;;;;5066712;28;20133;-60
2022/02/14 04:48:39;;;;;;;7.07;1.90;;;;;;;;;;5059991;28;20127;-60
2022/02/14 04:51:06;;;;;;;6.97;1.88;;;;;;;;;;5067273;28;20065;-59
2022/02/14 04:53:32;;;;;;;6.80;1.90;;;;;;;;;;5066749;28;20071;-59
2022/02/14 04:55:59;;;;;;;7.07;1.88;;;;;;;;;;5042084;28;20080;-59
2022/02/14 04:58:26;;;;;;;4.50;1.58;;;;;;;;;;5060683;28;20056;-61
2022/02/14 05:00:53;;;;;;;8.03;1.87;;;;;;;;;;5041693;28;20103;-60
2022/02/14 05:03:20;;;;;;;7.35;1.92;;;;;;;;;;5046273;28;20063;-59
2022/02/14 05:05:46;;;;;;;7.38;1.70;;;;;;;;;;5038998;28;20045;-58
2022/02/14 05:08:13;;;;;;;11.50;1.63;;;;;;;;;;5046462;28;20474;-58
2022/02/14 05:10:39;;;;;;;4.70;1.50;;;;;;;;;;5040642;28;20057;-60
2022/02/14 05:13:06;;;;;;;5.20;1.65;;;;;;;;;;5044187;28;20132;-60
2022/02/14 05:15:34;;;;;;;14.75;1.77;;;;;;;;;;5039372;28;20049;-59
2022/02/14 05:18:00;;;;;;;3.67;1.27;;;;;;;;;;5047098;28;20140;-58
2022/02/14 05:20:27;;;;;;;4.45;1.42;;;;;;;;;;5039410;28;20414;-59
2022/02/14 05:22:53;;;;;;;3.75;1.42;;;;;;;;;;5047416;28;20049;-61
2022/02/14 05:25:19;;;;;;;4.82;1.23;;;;;;;;;;5040376;28;20179;-59
2022/02/14 05:27:46;;;;;;;2.53;1.02;;;;;;;;;;5046629;28;20084;-59
2022/02/14 05:30:12;;;;;;;6.82;1.50;;;;;;;;;;5039582;28;20048;-60
2022/02/14 05:32:40;;;;;;;4.30;1.45;;;;;;;;;;5043700;28;20128;-58
2022/02/14 05:35:07;;;;;;;3.60;1.27;;;;;;;;;;5028346;28;20088;-58
2022/02/14 05:37:34;;;;;;;3.95;1.35;;;;;;;;;;5020781;28;20060;-59
2022/02/14 05:40:02;;;;;;;6.40;1.60;;;;;;;;;;5046332;28;20053;-59
2022/02/14 05:42:28;;;;;;;5.05;1.35;;;;;;;;;;5023885;28;20136;-59
2022/02/14 05:44:55;;;;;;;5.90;1.45;;;;;;;;;;5032048;28;20304;-61
2022/02/14 05:47:21;;;;;;;9.40;1.77;;;;;;;;;;5027679;28;20067;-61
2022/02/14 05:49:50;;;;;;;5.72;2.00;;;;;;;;;;5034704;28;20525;-61
2022/02/14 05:52:17;;;;;;;7.28;2.30;;;;;;;;;;5029518;28;20045;-61
2022/02/14 05:54:44;;;;;;;9.40;3.22;;;;;;;;;;5035763;28;20048;-62
2022/02/14 05:57:11;;;;;;;11.25;1.50;;;;;;;;;;5040925;28;20495;-58
2022/02/14 05:59:38;;;;;;;5.00;1.70;;;;;;;;;;5031880;28;20143;-60
2022/02/14 06:02:06;;;;;;;3.85;1.45;;;;;;;;;;5030726;28;20065;-58
2022/02/14 06:04:33;;;;;;;4.57;1.50;;;;;;;;;;5048916;28;20098;-59
2022/02/14 06:07:01;;;;;;;5.65;1.58;;;;;;;;;;5039392;28;20403;-60
2022/02/14 06:09:28;;;;;;;9.75;1.23;;;;;;;;;;5046254;28;20126;-60
2022/02/14 06:11:56;;;;;;;4.97;1.58;;;;;;;;;;5043345;28;20048;-60
2022/02/14 06:14:23;;;;;;;6.32;1.20;;;;;;;;;;5048080;28;20069;-61
2022/02/14 06:16:50;;;;;;;4.53;1.27;;;;;;;;;;5043130;28;20049;-60
2022/02/14 06:19:16;;;;;;;10.60;3.10;;;;;;;;;;5056490;28;20143;-59
2022/02/14 06:21:43;;;;;;;5.57;1.50;;;;;;;;;;5047708;28;20118;-58
2022/02/14 06:24:11;;;;;;;8.73;1.58;;;;;;;;;;5042744;28;20107;-60
2022/02/14 06:26:37;;;;;;;15.98;1.45;;;;;;;;;;5046650;28;20048;-61
2022/02/14 06:29:04;;;;;;;2.58;1.05;;;;;;;;;;5038830;28;20119;-61
2022/02/14 06:31:31;;;;;;;2.65;1.00;;;;;;;;;;5046817;28;20057;-59
2022/02/14 06:33:58;;;;;;;9.00;1.38;;;;;;;;;;5040829;28;20053;-58
2022/02/14 06:36:26;;;;;;;8.40;1.30;;;;;;;;;;5047597;28;20469;-59
2022/02/14 06:38:54;;;;;;;12.27;2.40;;;;;;;;;;5042402;28;20102;-59
2022/02/14 06:41:23;;;;;;;5.72;2.20;;;;;;;;;;5046715;28;20475;-61
2022/02/14 06:43:49;;;;;;;3.53;1.13;;;;;;;;;;5041864;28;20163;-60
2022/02/14 06:46:16;;;;;;;4.00;0.90;;;;;;;;;;5048406;28;20057;-60
2022/02/14 06:48:43;;;;;;;5.53;1.30;;;;;;;;;;5042506;28;20402;-59
2022/02/14 06:51:11;;;;;;;9.65;1.20;;;;;;;;;;5054001;28;20135;-60
2022/02/14 06:53:37;;;;;;;2.33;1.00;;;;;;;;;;5064268;28;20052;-60
2022/02/14 06:56:05;;;;;;;3.25;1.17;;;;;;;;;;5068286;28;20456;-61
2022/02/14 06:58:33;;;;;;;3.30;1.38;;;;;;;;;;5063627;28;20067;-61
2022/02/14 07:01:00;;;;;;;3.00;1.30;;;;;;;;;;5068851;28;20469;-58
2022/02/14 07:03:27;;;;;;;5.47;1.20;;;;;;;;;;5069153;28;20135;-59
2022/02/14 07:05:53;;;;;;;3.17;1.25;;;;;;;;;;5062717;28;20048;-59
2022/02/14 07:08:20;;;;;;;2.90;1.30;;;;;;;;;;5068928;28;20056;-61
2022/02/14 07:10:48;;;;;;;2.85;1.23;;;;;;;;;;5062526;28;20062;-60
2022/02/14 07:13:14;;;;;;;2.58;1.25;;;;;;;;;;5068768;28;20117;-59
2022/02/14 07:15:44;;;;;;;5.90;1.38;;;;;;;;;;5062685;28;20076;-62
2022/02/14 07:18:11;;;;;;;2.08;1.10;;;;;;;;;;5068980;28;20056;-61
2022/02/14 07:20:38;;;;;;;6.70;1.13;;;;;;;;;;5062981;28;20060;-61
2022/02/14 07:23:05;;;;;;;2.70;1.10;;;;;;;;;;5070415;28;20049;-61
2022/02/14 07:25:32;;;;;;;5.28;1.13;;;;;;;;;;5063204;28;20037;-62
2022/02/14 07:27:58;;;;;;;3.95;1.30;;;;;;;;;;5070487;28;20113;-62
2022/02/14 07:30:26;;;;;;;4.38;1.10;;;;;;;;;;5062689;28;20056;-61
2022/02/14 07:32:54;;;;;;;4.10;1.27;;;;;;;;;;5069035;28;20061;-61
2022/02/14 07:35:20;;;;;;;7.95;1.10;;;;;;;;;;5063020;28;20049;-60
2022/02/14 07:37:47;;;;;;;3.95;1.13;;;;;;;;;;5067448;28;20076;-60
2022/02/14 07:40:16;;;;;;;4.75;1.20;;;;;;;;;;5062385;28;20052;-61
2022/02/14 07:42:43;;;;;;;4.18;1.23;;;;;;;;;;5068910;28;20091;-61
2022/02/14 07:45:10;;;;;;;3.55;1.27;;;;;;;;;;5068198;28;20068;-61
2022/02/14 07:47:37;;;;;;;6.85;1.10;;;;;;;;;;5061934;28;20138;-59
2022/02/14 07:50:06;;;;;;;2.63;1.17;;;;;;;;;;5068150;28;20049;-61
2022/02/14 07:52:33;;;;;;;4.30;1.20;;;;;;;;;;5062429;28;20708;-59
2022/02/14 07:55:00;;;;;;;5.50;1.15;;;;;;;;;;5068199;28;20148;-61
2022/02/14 07:57:26;;;;;;;4.32;1.25;;;;;;;;;;5062488;28;20059;-58
2022/02/14 07:59:54;;;;;;;4.80;1.08;;;;;;;;;;5068587;28;20052;-60
2022/02/14 08:02:20;;;;;;;3.67;1.10;;;;;;;;;;5061794;28;20137;-60
2022/02/14 08:04:47;;;;;;;2.33;0.77;;;;;;;;;;5068201;28;20069;-59
2022/02/14 08:07:16;;;;;;;1.38;0.65;;;;;;;;;;5061471;28;20064;-60
2022/02/14 08:09:42;;;;;;;4.70;0.90;;;;;;;;;;5067984;28;20149;-60
2022/02/14 08:12:10;;;;;;;5.03;0.60;;;;;;;;;;5060305;28;20044;-60
2022/02/14 08:14:37;;;;;;;2.20;0.90;;;;;;;;;;5067135;28;20052;-60
2022/02/14 08:17:03;;;;;;;1.30;0.70;;;;;;;;;;5061425;28;20161;-60
2022/02/14 08:19:30;;;;;;;1.38;0.70;;;;;;;;;;5069170;28;20139;-59
2022/02/14 08:21:57;;;;;;;2.13;0.70;;;;;;;;;;5061741;28;20125;-59
2022/02/14 08:24:26;;;;;;;1.17;0.60;;;;;;;;;;5068090;28;20145;-61
2022/02/14 08:26:52;;;;;;;1.05;0.47;;;;;;;;;;5064137;28;20114;-61
2022/02/14 08:29:19;;;;;;;1.80;0.47;;;;;;;;;;5065599;28;20069;-60
2022/02/14 08:31:46;;;;;;;1.50;0.60;;;;;;;;;;5066795;28;20090;-59
2022/02/14 08:34:15;;;;;;;2.30;0.70;;;;;;;;;;5044650;28;20133;-60
2022/02/14 08:36:43;;;;;;;3.50;0.68;;;;;;;;;;5047048;28;20073;-59
2022/02/14 08:39:09;;;;;;;1.77;0.57;;;;;;;;;;5057348;28;20057;-59
2022/02/14 08:41:37;;;;;;;2.05;0.80;;;;;;;;;;5066978;28;20044;-60
2022/02/14 08:44:05;;;;;;;2.67;0.80;;;;;;;;;;5061461;28;20079;-59
2022/02/14 08:46:31;;;;;;;1.50;0.80;;;;;;;;;;5062280;28;20064;-60
2022/02/14 08:48:58;;;;;;;3.78;1.05;;;;;;;;;;5060137;28;20084;-61
2022/02/14 08:51:25;;;;;;;3.28;0.65;;;;;;;;;;5047652;28;20048;-62
2022/02/14 08:53:51;;;;;;;3.03;0.80;;;;;;;;;;5041194;28;20490;-61
2022/02/14 08:56:18;;;;;;;8.55;0.70;;;;;;;;;;5047890;28;20137;-61
2022/02/14 08:58:48;;;;;;;3.90;0.65;;;;;;;;;;5043815;28;20064;-61
2022/02/14 09:01:15;;;;;;;2.03;0.57;;;;;;;;;;5066834;28;20052;-61
2022/02/14 09:03:42;;;;;;;0.63;0.40;;;;;;;;;;5057156;28;20060;-60
2022/02/14 09:06:09;;;;;;;0.55;0.40;;;;;;;;;;5046522;28;20049;-60
2022/02/14 09:08:36;;;;;;;2.47;0.63;;;;;;;;;;5040616;28;20064;-59
2022/02/14 09:11:03;;;;;;;3.33;0.70;;;;;;;;;;5046079;28;20198;-62
2022/02/14 09:13:31;;;;;;;4.60;0.50;;;;;;;;;;5046839;28;20057;-60
2022/02/14 09:15:59;;;;;;;0.65;0.50;;;;;;;;;;5040089;28;20048;-62
2022/02/14 09:18:25;;;;;;;3.03;0.60;;;;;;;;;;5046274;28;20278;-60
2022/02/14 09:20:52;;;;;;;0.70;0.40;;;;;;;;;;5040441;28;20060;-59
2022/02/14 09:23:21;;;;;;;0.40;0.30;;;;;;;;;;5046169;28;20057;-58
2022/02/14 09:25:48;;;;;;;0.68;0.43;;;;;;;;;;5040395;28;20057;-59
2022/02/14 09:28:15;;;;;;;0.47;0.40;;;;;;;;;;5045778;28;20048;-58
2022/02/14 09:30:41;;;;;;;1.90;0.57;;;;;;;;;;5040440;28;20118;-60
2022/02/14 09:33:09;;;;;;;2.08;0.50;;;;;;;;;;5046285;28;20057;-59
2022/02/14 09:35:38;;;;;;;0.53;0.37;;;;;;;;;;5040011;28;20526;-60
2022/02/14 09:38:05;;;;;;;1.23;0.50;;;;;;;;;;5046370;28;20049;-60
2022/02/14 09:40:33;;;;;;;4.53;0.60;;;;;;;;;;5039728;28;20517;-60
2022/02/14 09:43:01;;;;;;;1.55;0.77;;;;;;;;;;5062678;28;20064;-60
2022/02/14 09:45:28;;;;;;;1.50;0.88;;;;;;;;;;5040234;28;20490;-60
2022/02/14 09:47:56;;;;;;;1.45;0.90;;;;;;;;;;5046193;28;20057;-59
2022/02/14 09:50:25;;;;;;;2.65;0.50;;;;;;;;;;5056566;28;20139;-60
2022/02/14 09:52:52;;;;;;;1.52;0.80;;;;;;;;;;5045595;28;20064;-61
2022/02/14 09:55:19;;;;;;;2.50;0.82;;;;;;;;;;5043139;28;20473;-60
2022/02/14 09:57:46;;;;;;;2.97;0.95;;;;;;;;;;5043718;28;20052;-61
2022/02/14 10:00:14;;;;;;;2.22;0.93;;;;;;;;;;5046606;28;20544;-59
2022/02/14 10:02:40;;;;;;;3.50;1.30;;;;;;;;;;5039970;28;20055;-59
2022/02/14 10:05:09;;;;;;;3.67;1.42;;;;;;;;;;5045681;28;20297;-61
2022/02/14 10:07:41;;;;;;;3.03;1.40;;;;;;;;;;5040007;28;20092;-60
2022/02/14 10:10:09;;;;;;;3.90;1.83;;;;;;;;;;5045719;28;20327;-58
2022/02/14 10:12:40;;;;;;;4.40;1.75;;;;;;;;;;5040384;28;20414;-61
2022/02/14 10:15:06;;;;;;;4.32;1.90;;;;;;;;;;5046092;28;20113;-58
2022/02/14 10:17:38;;;;;;;3.30;1.60;;;;;;;;;;5040189;28;20053;-61
2022/02/14 10:20:05;;;;;;;6.18;1.55;;;;;;;;;;5046273;28;20095;-61
2022/02/14 10:22:33;;;;;;;4.07;1.98;;;;;;;;;;5040909;28;20122;-61
2022/02/14 10:25:00;;;;;;;3.53;1.80;;;;;;;;;;5045361;28;20049;-61
2022/02/14 10:27:31;;;;;;;5.73;1.63;;;;;;;;;;5040343;28;20491;-61
2022/02/14 10:30:07;;;;;;;5.72;1.83;;;;;;;;;;5045871;28;20431;-60
2022/02/14 10:32:33;;;;;;;6.90;1.90;;;;;;;;;;5045649;28;20058;-61
2022/02/14 10:35:00;;;;;;;3.78;2.10;;;;;;;;;;5061628;28;20057;-59
2022/02/14 10:37:40;;;;;;;7.03;3.45;;;;;;;;;;5042342;28;20053;-61
2022/02/14 10:40:09;;;;;;;6.68;1.98;;;;;;;;;;5048104;28;20556;-61
2022/02/14 10:42:37;;;;;;;5.85;1.95;;;;;;;;;;5044219;28;20555;-59
2022/02/14 10:45:09;;;;;;;3.90;2.13;;;;;;;;;;5049437;28;20076;-61
2022/02/14 10:47:36;;;;;;;4.85;2.00;;;;;;;;;;5042962;28;20055;-60
2022/02/14 10:50:05;;;;;;;4.85;2.25;;;;;;;;;;5049215;28;20044;-59
2022/02/14 10:52:31;;;;;;;;;;;;;;;;;;5046298;28;20053;-61
2022/02/14 10:54:58;;;;;;;4.95;1.80;;;;;;;;;;5046575;28;19925;-59
2022/02/14 10:57:27;;;;;;;6.60;2.08;;;;;;;;;;5048655;28;20122;-60
2022/02/14 11:00:01;;;;;;;4.82;1.98;;;;;;;;;;5058622;28;20056;-61
2022/02/14 11:02:28;;;;;;;3.40;2.17;;;;;;;;;;5038021;28;20065;-61
2022/02/14 11:04:55;;;;;;;3.60;1.73;;;;;;;;;;5023505;28;20077;-61
2022/02/14 11:07:22;;;;;;;7.80;1.63;;;;;;;;;;5030345;28;20057;-62
2022/02/14 11:09:50;;;;;;;7.57;1.90;;;;;;;;;;5025128;28;20065;-61
2022/02/14 11:12:18;;;;;;;6.13;2.10;;;;;;;;;;5028947;28;20107;-60
2022/02/14 11:14:46;;;;;;;5.82;2.00;;;;;;;;;;5022597;28;20045;-59
2022/02/14 11:17:13;;;;;;;2.90;1.80;;;;;;;;;;5028631;28;20411;-60
2022/02/14 11:19:42;;;;;;;5.95;1.63;;;;;;;;;;5022720;28;20539;-60
2022/02/14 11:22:09;;;;;;;2.60;1.50;;;;;;;;;;5029116;28;20080;-60
2022/02/14 11:24:39;;;;;;;3.85;1.55;;;;;;;;;;5023610;28;20123;-62
2022/02/14 11:27:08;;;;;;;5.70;1.40;;;;;;;;;;5029020;28;20095;-60
2022/02/14 11:29:55;;;;;;;2.78;1.23;;;;;;;;;;5023426;28;20060;-59
2022/02/14 11:32:23;;;;;;;6.05;1.40;;;;;;;;;;5027789;28;20049;-60
2022/02/14 11:34:53;;;;;;;4.78;1.33;;;;;;;;;;5022267;28;20144;-59
2022/02/14 11:37:20;;;;;;;5.00;1.63;;;;;;;;;;5028290;28;20140;-61
2022/02/14 11:39:47;;;;;;;7.32;1.75;;;;;;;;;;5022877;28;20057;-61
2022/02/14 11:42:14;;;;;;;3.70;1.27;;;;;;;;;;5027376;28;20061;-59
2022/02/14 11:44:42;;;;;;;3.58;1.58;;;;;;;;;;5022967;28;20089;-60
2022/02/14 11:47:11;;;;;;;2.95;1.30;;;;;;;;;;5028587;28;20050;-59
2022/02/14 11:49:38;;;;;;;3.55;1.17;;;;;;;;;;5028179;28;20077;-62
2022/02/14 11:52:06;;;;;;;2.80;0.90;;;;;;;;;;5019905;28;20049;-60
2022/02/14 11:54:34;;;;;;;6.07;1.35;;;;;;;;;;5027865;28;20060;-61
2022/02/14 11:57:19;;;;;;;4.63;1.20;;;;;;;;;;5021664;28;20058;-60
2022/02/14 11:59:46;;;;;;;4.70;1.02;;;;;;;;;;5028722;28;20326;-61
2022/02/14 12:02:15;;;;;;;3.17;0.98;;;;;;;;;;5028956;28;20053;-61
2022/02/14 12:04:42;;;;;;;4.18;1.25;;;;;;;;;;5048791;28;20650;-61
2022/02/14 12:07:19;;;;;;;2.92;1.08;;;;;;;;;;5044159;28;20060;-60
2022/02/14 12:10:05;;;;;;;10.23;1.30;;;;;;;;;;5047333;28;20456;-61
2022/02/14 12:13:03;;;;;;;4.70;1.10;;;;;;;;;;5044292;28;20648;-60
2022/02/14 12:21:11;;;;;;;3.90;0.70;;;;;;;;;;5060675;28;20053;-59
2022/02/14 12:23:40;;;;;;;3.90;0.80;;;;;;;;;;5067402;28;20052;-60
2022/02/14 12:26:08;;;;;;;3.22;1.10;;;;;;;;;;5067725;28;20143;-60
2022/02/14 12:28:36;;;;;;;4.33;1.20;;;;;;;;;;5044312;28;20460;-59
2022/02/14 12:31:03;;;;;;;2.03;0.73;;;;;;;;;;5064196;28;20298;-61
2022/02/14 12:33:31;;;;;;;1.52;0.73;;;;;;;;;;5043227;28;20080;-61
2022/02/14 12:35:58;;;;;;;3.58;0.90;;;;;;;;;;5047304;28;20057;-59
2022/02/14 12:38:25;;;;;;;5.68;0.93;;;;;;;;;;5056743;28;20054;-60
2022/02/14 12:40:53;;;;;;;2.58;0.77;;;;;;;;;;5067984;28;20052;-62
2022/02/14 12:43:25;;;;;;;4.90;0.90;;;;;;;;;;5061132;28;20052;-60
2022/02/14 12:45:53;;;;;;;4.72;0.80;;;;;;;;;;5065440;28;20130;-61
2022/02/14 12:48:30;;;;;;;3.97;0.80;;;;;;;;;;5050342;28;20049;-61
2022/02/14 12:50:58;;;;;;;5.50;1.00;;;;;;;;;;5047396;28;20052;-61
2022/02/14 12:53:24;;;;;;;2.80;1.13;;;;;;;;;;5051611;28;20076;-61
2022/02/14 12:55:51;;;;;;;2.50;0.80;;;;;;;;;;5067844;28;20053;-61
2022/02/14 12:58:18;;;;;;;4.15;0.68;;;;;;;;;;5060873;28;20093;-60
2022/02/14 13:00:44;;;;;;;2.83;0.73;;;;;;;;;;5067380;28;20052;-59
2022/02/14 13:03:11;;;;;;;1.75;0.50;;;;;;;;;;5056177;28;20060;-60
2022/02/14 13:05:38;;;;;;;4.13;0.75;;;;;;;;;;5046530;28;20055;-59
2022/02/14 13:08:17;;;;;;;1.83;0.60;;;;;;;;;;5042642;28;20463;-59
2022/02/14 13:10:44;;;;;;;3.70;0.70;;;;;;;;;;5066868;28;20075;-61
2022/02/14 13:13:11;;;;;;;2.92;0.80;;;;;;;;;;5057754;28;20045;-61
2022/02/14 13:15:42;;;;;;;2.85;0.75;;;;;;;;;;5046964;28;20064;-59
2022/02/14 13:18:09;;;;;;;6.60;0.88;;;;;;;;;;5046813;28;20057;-60
2022/02/14 13:20:36;;;;;;;4.22;0.65;;;;;;;;;;5061730;28;20056;-62
2022/02/14 13:23:03;;;;;;;4.57;0.90;;;;;;;;;;5066877;28;20055;-61
2022/02/14 13:25:31;;;;;;;5.30;0.75;;;;;;;;;;5044217;28;20072;-61
2022/02/14 13:27:58;;;;;;;8.38;0.82;;;;;;;;;;5046197;28;20132;-60
2022/02/14 13:30:25;;;;;;;3.65;0.80;;;;;;;;;;5052824;28;20052;-61
2022/02/14 13:32:52;;;;;;;3.60;1.15;;;;;;;;;;5066901;28;20152;-61
2022/02/14 13:35:19;;;;;;;7.78;1.27;;;;;;;;;;5046721;28;20053;-61
2022/02/14 13:37:47;;;;;;;4.80;0.80;;;;;;;;;;5058374;28;20052;-61
2022/02/14 13:40:24;;;;;;;3.35;0.60;;;;;;;;;;5062407;28;20143;-61
2022/02/14 13:42:54;;;;;;;2.83;0.70;;;;;;;;;;5067126;28;20056;-61
2022/02/14 13:45:21;;;;;;;7.25;1.27;;;;;;;;;;5060476;28;20315;-60
2022/02/14 13:47:47;;;;;;;4.45;0.98;;;;;;;;;;5066685;28;20060;-59
2022/02/14 13:50:22;;;;;;;8.07;0.65;;;;;;;;;;5060616;28;20106;-59
2022/02/14 13:52:49;;;;;;;5.85;0.73;;;;;;;;;;5066474;28;20054;-60
2022/02/14 13:55:17;;;;;;;2.72;0.45;;;;;;;;;;5054907;28;20049;-60
2022/02/14 13:57:44;;;;;;;2.17;0.63;;;;;;;;;;5046412;28;20099;-60
2022/02/14 14:00:26;;;;;;;4.60;0.90;;;;;;;;;;5043150;28;20140;-59
2022/02/14 14:03:00;;;;;;;6.78;1.35;;;;;;;;;;5065217;28;20076;-59
2022/02/14 14:05:27;;;;;;;1.63;0.60;;;;;;;;;;5060546;28;20135;-58
2022/02/14 14:07:54;;;;;;;4.28;0.80;;;;;;;;;;5069387;28;20139;-59
2022/02/14 14:10:36;;;;;;;3.53;0.73;;;;;;;;;;5063882;28;20053;-60
2022/02/14 14:13:02;;;;;;;3.97;0.75;;;;;;;;;;5068483;28;20052;-60
2022/02/14 14:15:29;;;;;;;3.38;1.08;;;;;;;;;;5061970;28;20125;-60
2022/02/14 14:17:55;;;;;;;3.83;0.90;;;;;;;;;;5051321;28;21135;-61
2022/02/14 14:20:24;;;;;;;4.50;1.00;;;;;;;;;;5070174;28;20110;-61
2022/02/14 14:22:51;;;;;;;;;;;;;;;;;;5046452;28;20049;-61
2022/02/14 14:25:18;;;;;;;3.10;0.80;;;;;;;;;;5047851;28;19995;-61
2022/02/14 14:27:47;;;;;;;2.33;0.65;;;;;;;;;;5059753;28;20059;-61
2022/02/14 14:30:14;;;;;;;4.32;0.60;;;;;;;;;;5069234;28;20084;-59
2022/02/14 14:32:41;;;;;;;4.47;0.65;;;;;;;;;;5063689;28;20101;-61
2022/02/14 14:35:08;;;;;;;1.63;0.60;;;;;;;;;;5070270;28;20068;-59
2022/02/14 14:37:36;;;;;;;2.30;0.68;;;;;;;;;;5063991;28;20143;-61
2022/02/14 14:40:03;;;;;;;2.33;1.17;;;;;;;;;;5069743;28;20048;-60
2022/02/14 14:42:29;;;;;;;3.25;0.60;;;;;;;;;;5063706;28;20307;-60
2022/02/14 14:44:56;;;;;;;4.80;1.30;;;;;;;;;;5069401;28;20129;-60
2022/02/14 14:47:23;;;;;;;4.82;0.80;;;;;;;;;;5062888;28;20056;-59
2022/02/14 14:49:49;;;;;;;3.25;1.00;;;;;;;;;;5069806;28;20055;-60
2022/02/14 14:52:16;;;;;;;5.65;0.85;;;;;;;;;;5063747;28;20048;-61
2022/02/14 14:54:45;;;;;;;3.88;0.93;;;;;;;;;;5069352;28;20117;-59